Time;durP1;ratioP1;P1;durP2;ratioP2;P2;SDS_P1;SDS_P2;PMS_P1;PMS_P2;Temp;Humidity;BMP_temperature;BMP_pressure;BME280_temperature;BME280_humidity;BME280_pressure;Samples;Min_cycle;Max_cycle;Signal;HPM_P1;HPM_P2
2022/01/09 00:01:50;;;;;;;18.37;14.70;;;4.30;99.90;;;;;;4849490;29;20054;-66
2022/01/09 00:04:16;;;;;;;16.47;14.10;;;4.20;99.90;;;;;;4853866;29;20038;-66
2022/01/09 00:06:41;;;;;;;20.07;14.50;;;4.20;99.90;;;;;;4859512;29;20302;-67
2022/01/09 00:09:07;;;;;;;21.43;15.30;;;4.30;99.90;;;;;;4869909;29;20468;-67
2022/01/09 00:11:33;;;;;;;18.17;14.47;;;4.30;99.90;;;;;;4859684;29;20113;-63
2022/01/09 00:13:58;;;;;;;18.87;14.53;;;4.20;99.90;;;;;;4852458;29;20053;-64
2022/01/09 00:16:24;;;;;;;17.03;13.70;;;4.30;99.90;;;;;;4844773;29;20045;-64
2022/01/09 00:18:51;;;;;;;17.40;14.05;;;4.30;99.90;;;;;;4835104;29;20062;-63
2022/01/09 00:21:17;;;;;;;;;;;4.30;99.90;;;;;;4836044;29;20043;-64
2022/01/09 00:23:43;;;;;;;20.20;15.20;;;4.20;99.90;;;;;;4849185;29;19951;-63
2022/01/09 00:26:09;;;;;;;19.98;14.68;;;4.20;99.90;;;;;;4835536;29;20046;-63
2022/01/09 00:28:35;;;;;;;17.50;14.30;;;4.20;99.90;;;;;;4852223;29;20057;-64
2022/01/09 00:31:01;;;;;;;17.15;14.10;;;4.30;99.90;;;;;;4854072;29;20046;-63
2022/01/09 00:33:27;;;;;;;18.42;14.48;;;4.30;99.90;;;;;;4852055;29;20692;-64
2022/01/09 00:35:53;;;;;;;18.20;14.00;;;4.30;99.90;;;;;;4852346;29;20050;-63
2022/01/09 00:38:19;;;;;;;18.73;14.77;;;4.20;99.90;;;;;;4837851;29;20083;-64
2022/01/09 00:40:45;;;;;;;19.37;15.17;;;4.30;99.90;;;;;;4833370;29;20050;-63
2022/01/09 00:43:11;;;;;;;17.00;14.13;;;4.30;99.90;;;;;;4839117;29;20306;-62
2022/01/09 00:45:38;;;;;;;21.27;15.75;;;4.30;99.90;;;;;;4851945;29;20088;-63
2022/01/09 00:48:05;;;;;;;19.52;15.32;;;4.30;99.90;;;;;;4838718;29;20058;-63
2022/01/09 00:50:30;;;;;;;;;;;4.30;99.90;;;;;;4834321;29;20149;-63
2022/01/09 00:52:56;;;;;;;21.50;15.63;;;4.20;99.90;;;;;;4845440;29;19972;-63
2022/01/09 00:55:22;;;;;;;20.40;15.47;;;4.20;99.90;;;;;;4851723;29;20100;-63
2022/01/09 00:57:47;;;;;;;20.05;14.82;;;4.30;99.90;;;;;;4851390;29;20053;-63
2022/01/09 01:00:13;;;;;;;19.80;14.50;;;4.30;99.90;;;;;;4853200;29;20399;-64
2022/01/09 01:02:40;;;;;;;19.85;14.10;;;4.30;99.90;;;;;;4851539;29;20038;-63
2022/01/09 01:05:06;;;;;;;19.77;14.05;;;4.30;99.90;;;;;;4850834;29;20110;-64
2022/01/09 01:07:33;;;;;;;19.48;14.85;;;4.30;99.90;;;;;;4835422;29;20042;-64
2022/01/09 01:09:58;;;;;;;19.38;14.43;;;4.30;99.90;;;;;;4849809;29;20426;-63
2022/01/09 01:12:29;;;;;;;18.77;14.73;;;4.30;99.90;;;;;;4847861;29;20058;-63
2022/01/09 01:14:55;;;;;;;22.67;15.18;;;4.30;99.90;;;;;;4834720;29;20203;-64
2022/01/09 01:17:22;;;;;;;17.17;14.45;;;4.30;99.90;;;;;;4850486;29;20054;-64
2022/01/09 01:19:48;;;;;;;19.23;14.40;;;4.30;99.90;;;;;;4853200;29;20046;-63
2022/01/09 01:22:14;;;;;;;20.55;15.98;;;4.30;99.90;;;;;;4851989;29;20115;-64
2022/01/09 01:24:41;;;;;;;24.42;15.82;;;4.30;99.90;;;;;;4851131;29;20054;-64
2022/01/09 01:27:07;;;;;;;;;;;4.30;99.90;;;;;;4847758;29;20050;-64
2022/01/09 01:29:33;;;;;;;17.77;13.82;;;4.30;99.90;;;;;;4841252;29;19925;-65
2022/01/09 01:31:59;;;;;;;;;;;4.30;99.90;;;;;;4852667;29;20054;-64
2022/01/09 01:34:24;;;;;;;20.73;15.82;;;4.30;99.90;;;;;;4851138;29;19977;-64
2022/01/09 01:36:50;;;;;;;24.47;16.37;;;4.30;99.90;;;;;;4848841;29;20486;-64
2022/01/09 01:39:16;;;;;;;19.13;14.70;;;4.30;99.90;;;;;;4833935;29;20474;-64
2022/01/09 01:41:41;;;;;;;22.83;15.97;;;4.30;99.90;;;;;;4840587;29;20062;-64
2022/01/09 01:44:09;;;;;;;21.37;16.20;;;4.30;99.90;;;;;;4852042;29;20086;-63
2022/01/09 01:46:35;;;;;;;23.90;17.42;;;4.30;99.90;;;;;;4852312;29;20057;-64
2022/01/09 01:49:01;;;;;;;22.60;16.80;;;4.40;99.90;;;;;;4847892;29;20413;-64
2022/01/09 01:51:27;;;;;;;27.60;18.50;;;4.40;99.90;;;;;;4850552;29;20082;-64
2022/01/09 01:53:55;;;;;;;25.13;16.83;;;4.40;99.90;;;;;;4840975;29;20081;-64
2022/01/09 01:56:22;;;;;;;23.13;17.00;;;4.40;99.90;;;;;;4852594;29;20447;-64
2022/01/09 01:58:49;;;;;;;23.58;17.48;;;4.40;99.90;;;;;;4836835;29;20057;-64
2022/01/09 02:01:16;;;;;;;27.02;17.58;;;4.40;99.90;;;;;;4834203;29;20089;-64
2022/01/09 02:03:41;;;;;;;;;;;4.40;99.90;;;;;;4849743;29;20046;-64
2022/01/09 02:06:07;;;;;;;23.73;17.17;;;4.40;99.90;;;;;;4861612;29;20006;-64
2022/01/09 02:08:33;;;;;;;29.15;18.80;;;4.40;99.90;;;;;;4851488;29;20065;-64
2022/01/09 02:11:00;;;;;;;29.50;19.13;;;4.50;99.90;;;;;;4848246;29;20554;-64
2022/01/09 02:13:25;;;;;;;33.75;20.13;;;4.40;99.90;;;;;;4850099;29;20137;-64
2022/01/09 02:15:56;;;;;;;32.17;20.03;;;4.50;99.90;;;;;;4850698;29;20050;-63
2022/01/09 02:18:23;;;;;;;29.40;19.13;;;4.50;99.90;;;;;;4850372;29;20053;-63
2022/01/09 02:20:50;;;;;;;29.30;19.50;;;4.50;99.90;;;;;;4840865;29;20050;-64
2022/01/09 02:23:17;;;;;;;28.92;19.60;;;4.50;99.90;;;;;;4842893;29;20054;-64
2022/01/09 02:25:46;;;;;;;28.83;18.85;;;4.50;99.90;;;;;;4851908;29;20053;-63
2022/01/09 02:28:13;;;;;;;31.70;20.20;;;4.50;99.90;;;;;;4843705;29;20189;-63
2022/01/09 02:30:39;;;;;;;37.97;21.35;;;4.50;99.90;;;;;;4833427;29;20050;-63
2022/01/09 02:33:08;;;;;;;32.58;20.48;;;4.50;99.90;;;;;;4839322;29;20095;-63
2022/01/09 02:35:35;;;;;;;30.42;20.50;;;4.50;99.90;;;;;;4850707;29;20129;-64
2022/01/09 02:38:02;;;;;;;;;;;4.50;99.90;;;;;;4849736;29;20080;-64
2022/01/09 02:40:28;;;;;;;31.67;19.70;;;4.50;99.90;;;;;;4852080;29;19924;-64
2022/01/09 02:42:54;;;;;;;37.80;20.07;;;4.50;99.90;;;;;;4844330;29;20073;-64
2022/01/09 02:45:23;;;;;;;33.70;19.17;;;4.50;99.90;;;;;;4843216;29;20072;-64
2022/01/09 02:47:50;;;;;;;36.25;20.15;;;4.60;99.90;;;;;;4850138;29;20042;-64
2022/01/09 02:55:37;;;;;;;29.38;17.67;;;4.50;99.90;;;;;;4780944;30;20151;-64
2022/01/09 02:58:03;;;;;;;26.55;15.77;;;4.60;99.90;;;;;;4763099;30;20063;-64
2022/01/09 03:00:34;;;;;;;26.57;13.93;;;4.60;99.90;;;;;;4762347;30;20128;-64
2022/01/09 03:03:00;;;;;;;22.85;12.48;;;4.60;99.90;;;;;;4770662;30;20047;-64
2022/01/09 03:05:27;;;;;;;18.67;11.65;;;4.70;99.90;;;;;;4783225;30;20066;-64
2022/01/09 03:07:53;;;;;;;23.63;11.02;;;4.70;99.90;;;;;;4769899;30;20115;-64
2022/01/09 03:10:20;;;;;;;18.80;10.07;;;4.80;99.90;;;;;;4779355;30;20064;-63
2022/01/09 03:12:48;;;;;;;25.40;10.13;;;4.80;99.90;;;;;;4782480;30;20063;-63
2022/01/09 03:15:14;;;;;;;18.45;8.68;;;4.80;99.90;;;;;;4795186;30;20061;-63
2022/01/09 03:17:40;;;;;;;20.73;7.82;;;4.90;99.90;;;;;;4780756;30;20071;-63
2022/01/09 03:20:11;;;;;;;25.25;7.75;;;4.90;99.90;;;;;;4779745;30;20100;-63
2022/01/09 03:22:36;;;;;;;21.27;5.53;;;4.90;99.90;;;;;;4754283;30;20058;-63
2022/01/09 03:25:03;;;;;;;24.38;5.63;;;5.00;99.90;;;;;;4785115;30;20056;-63
2022/01/09 03:27:28;;;;;;;33.60;5.97;;;5.00;99.90;;;;;;4766338;30;20204;-63
2022/01/09 03:29:54;;;;;;;27.67;5.10;;;5.00;99.90;;;;;;4765041;30;20242;-63
2022/01/09 03:32:20;;;;;;;23.10;5.47;;;5.10;99.90;;;;;;4825924;29;20062;-63
2022/01/09 03:34:45;;;;;;;33.47;5.80;;;5.10;99.90;;;;;;4835866;29;20077;-63
2022/01/09 03:37:11;;;;;;;24.53;4.47;;;5.10;99.90;;;;;;4842463;29;20058;-62
2022/01/09 03:39:37;;;;;;;28.77;5.07;;;5.10;99.90;;;;;;4854229;29;20321;-63
2022/01/09 03:42:03;;;;;;;28.53;4.80;;;5.10;99.90;;;;;;4854517;29;20149;-63
2022/01/09 03:44:29;;;;;;;32.40;5.65;;;5.10;99.90;;;;;;4851117;29;20111;-63
2022/01/09 03:46:55;;;;;;;39.78;6.10;;;5.10;99.90;;;;;;4837748;29;20070;-63
2022/01/09 03:49:21;;;;;;;;;;;5.10;99.90;;;;;;4845510;29;20057;-63
2022/01/09 03:51:50;;;;;;;27.65;4.90;;;5.10;99.90;;;;;;4842276;29;19924;-63
2022/01/09 03:54:23;;;;;;;27.23;5.35;;;5.10;99.90;;;;;;4853680;29;20069;-64
2022/01/09 03:56:52;;;;;;;21.73;4.47;;;5.10;99.90;;;;;;4848331;29;20418;-63
2022/01/09 03:59:18;;;;;;;22.17;4.55;;;5.10;99.90;;;;;;4852752;29;20046;-64
2022/01/09 04:01:45;;;;;;;29.85;4.43;;;5.20;99.90;;;;;;4849378;29;20046;-64
2022/01/09 04:04:11;;;;;;;30.55;5.05;;;5.10;99.90;;;;;;4834630;29;20054;-64
2022/01/09 04:06:44;;;;;;;;;;;5.20;99.90;;;;;;4853774;29;20057;-64
2022/01/09 04:09:18;;;;;;;36.80;4.45;;;5.10;99.90;;;;;;4850574;29;19931;-64
2022/01/09 04:11:44;;;;;;;34.28;5.03;;;5.20;99.90;;;;;;4835221;29;20411;-64
2022/01/09 04:14:10;;;;;;;30.92;5.68;;;5.20;99.90;;;;;;4854974;29;20114;-64
2022/01/09 04:16:35;;;;;;;38.47;6.97;;;5.20;99.90;;;;;;4858247;29;20054;-63
2022/01/09 04:19:01;;;;;;;41.53;6.40;;;5.20;99.90;;;;;;4850417;29;20299;-63
2022/01/09 04:21:27;;;;;;;72.22;9.75;;;5.20;99.90;;;;;;4837009;29;20221;-64
2022/01/09 04:23:52;;;;;;;63.90;8.97;;;5.30;99.90;;;;;;4833744;29;20054;-63
2022/01/09 04:26:20;;;;;;;63.47;8.53;;;5.30;99.90;;;;;;4835286;29;20110;-63
2022/01/09 04:28:46;;;;;;;61.83;8.13;;;5.30;99.90;;;;;;4836652;29;20070;-63
2022/01/09 04:31:12;;;;;;;70.57;8.50;;;5.40;99.90;;;;;;4836399;29;20102;-64
2022/01/09 04:33:37;;;;;;;52.17;8.63;;;5.40;99.90;;;;;;4833578;29;20081;-63
2022/01/09 04:36:03;;;;;;;59.73;7.93;;;5.50;99.90;;;;;;4842434;29;20045;-64
2022/01/09 04:38:29;;;;;;;68.03;9.25;;;5.50;99.90;;;;;;4850107;29;20127;-63
2022/01/09 04:40:54;;;;;;;45.40;7.50;;;5.50;99.90;;;;;;4836203;29;20118;-63
2022/01/09 04:43:20;;;;;;;50.67;7.50;;;5.50;99.90;;;;;;4846190;29;20062;-63
2022/01/09 04:45:46;;;;;;;45.35;8.32;;;5.50;99.90;;;;;;4849778;29;20033;-63
2022/01/09 04:48:13;;;;;;;54.65;6.55;;;5.50;99.90;;;;;;4853181;29;20054;-63
2022/01/09 04:50:42;;;;;;;49.22;6.85;;;5.50;99.90;;;;;;4847763;29;20054;-64
2022/01/09 04:53:09;;;;;;;42.92;6.97;;;5.60;99.90;;;;;;4841974;29;20058;-63
2022/01/09 04:55:45;;;;;;;58.13;7.97;;;5.60;99.90;;;;;;4851900;29;20526;-63
2022/01/09 04:58:11;;;;;;;62.78;8.60;;;5.60;99.90;;;;;;4834917;29;20388;-63
2022/01/09 05:00:39;;;;;;;41.97;6.68;;;5.60;99.90;;;;;;4842908;29;20057;-63
2022/01/09 05:03:06;;;;;;;49.50;7.50;;;5.60;99.90;;;;;;4852955;29;20426;-63
2022/01/09 05:05:33;;;;;;;62.70;9.63;;;5.60;99.90;;;;;;4849569;29;20110;-64
2022/01/09 05:07:59;;;;;;;51.25;6.85;;;5.60;99.90;;;;;;4833201;29;20104;-63
2022/01/09 05:10:25;;;;;;;50.78;7.55;;;5.60;99.90;;;;;;4836774;29;20050;-64
2022/01/09 05:12:50;;;;;;;47.65;5.93;;;5.60;99.90;;;;;;4834623;29;20050;-64
2022/01/09 05:15:18;;;;;;;33.73;6.20;;;5.60;99.90;;;;;;4842332;29;20051;-63
2022/01/09 05:17:44;;;;;;;54.72;7.07;;;5.60;99.90;;;;;;4850858;29;20080;-63
2022/01/09 05:20:10;;;;;;;35.25;7.13;;;5.60;99.90;;;;;;4851656;29;20466;-64
2022/01/09 05:22:36;;;;;;;55.80;8.57;;;5.60;99.90;;;;;;4849496;29;20101;-64
2022/01/09 05:25:06;;;;;;;51.85;7.47;;;5.60;99.90;;;;;;4850952;29;20046;-64
2022/01/09 05:27:32;;;;;;;41.97;7.13;;;5.60;99.90;;;;;;4850429;29;20081;-64
2022/01/09 05:29:58;;;;;;;43.17;6.03;;;5.60;99.90;;;;;;4852775;29;20129;-64
2022/01/09 05:32:24;;;;;;;35.23;5.47;;;5.60;99.90;;;;;;4848051;29;20130;-63
2022/01/09 05:34:49;;;;;;;35.83;6.05;;;5.60;99.90;;;;;;4851227;29;20072;-64
2022/01/09 05:37:15;;;;;;;36.67;5.43;;;5.60;99.90;;;;;;4844423;29;20053;-64
2022/01/09 05:39:41;;;;;;;40.47;6.93;;;5.60;99.90;;;;;;4852406;29;20109;-64
2022/01/09 05:42:10;;;;;;;43.00;7.72;;;5.60;99.90;;;;;;4843529;29;20050;-64
2022/01/09 05:44:35;;;;;;;32.70;6.30;;;5.60;99.90;;;;;;4851105;29;20108;-64
2022/01/09 05:47:01;;;;;;;39.92;7.10;;;5.60;99.90;;;;;;4844460;29;20109;-64
2022/01/09 05:49:27;;;;;;;36.83;6.05;;;5.60;99.90;;;;;;4842730;29;20050;-64
2022/01/09 05:51:53;;;;;;;37.85;5.78;;;5.60;99.90;;;;;;4841767;29;20088;-64
2022/01/09 05:54:19;;;;;;;37.05;5.97;;;5.60;99.90;;;;;;4841999;29;20053;-64
2022/01/09 05:56:44;;;;;;;54.80;5.83;;;5.60;99.90;;;;;;4852246;29;20090;-64
2022/01/09 05:59:10;;;;;;;43.87;5.90;;;5.60;99.90;;;;;;4844425;29;20300;-64
2022/01/09 06:01:36;;;;;;;37.47;7.07;;;5.60;99.90;;;;;;4835344;29;20071;-64
2022/01/09 06:04:02;;;;;;;29.33;5.27;;;5.60;99.90;;;;;;4833505;29;20072;-64
2022/01/09 06:06:28;;;;;;;36.20;5.57;;;5.60;99.90;;;;;;4849278;29;20049;-65
2022/01/09 06:08:54;;;;;;;45.50;6.37;;;5.60;99.90;;;;;;4851964;29;20081;-64
2022/01/09 06:11:20;;;;;;;47.07;6.60;;;5.60;99.90;;;;;;4849196;29;20399;-64
2022/01/09 06:13:46;;;;;;;32.90;4.65;;;5.60;99.90;;;;;;4851813;29;20066;-64
2022/01/09 06:16:13;;;;;;;28.02;5.65;;;5.60;99.90;;;;;;4847288;29;20146;-65
2022/01/09 06:18:38;;;;;;;;;;;5.50;99.90;;;;;;4846578;29;20150;-64
2022/01/09 06:21:04;;;;;;;31.33;5.95;;;5.50;99.90;;;;;;4850737;29;19973;-64
2022/01/09 06:23:30;;;;;;;19.30;4.97;;;5.50;99.90;;;;;;4849126;29;20054;-64
2022/01/09 06:25:55;;;;;;;36.17;5.30;;;5.50;99.90;;;;;;4840477;29;20054;-64
2022/01/09 06:28:21;;;;;;;36.50;5.60;;;5.50;99.90;;;;;;4846975;29;20037;-65
2022/01/09 06:30:47;;;;;;;30.88;6.28;;;5.50;99.90;;;;;;4850577;29;20053;-66
2022/01/09 06:33:14;;;;;;;32.45;5.68;;;5.50;99.90;;;;;;4848938;29;20058;-64
2022/01/09 06:35:40;;;;;;;;;;;5.60;99.90;;;;;;4850720;29;20041;-63
2022/01/09 06:38:06;;;;;;;25.90;4.35;;;5.50;99.90;;;;;;4851519;29;19979;-64
2022/01/09 06:40:33;;;;;;;27.45;4.63;;;5.50;99.90;;;;;;4854440;29;20428;-63
2022/01/09 06:42:59;;;;;;;29.42;5.80;;;5.50;99.90;;;;;;4840452;29;20103;-63
2022/01/09 06:45:26;;;;;;;41.88;7.05;;;5.50;99.90;;;;;;4853645;29;20045;-63
2022/01/09 06:47:53;;;;;;;33.28;6.50;;;5.50;99.90;;;;;;4839775;29;20137;-63
2022/01/09 06:50:19;;;;;;;26.80;4.78;;;5.50;99.90;;;;;;4850932;29;20142;-64
2022/01/09 06:52:44;;;;;;;39.03;5.97;;;5.60;99.90;;;;;;4849320;29;20046;-64
2022/01/09 06:55:11;;;;;;;30.77;4.50;;;5.60;99.90;;;;;;4835660;29;20633;-64
2022/01/09 06:57:37;;;;;;;30.52;4.32;;;5.60;99.90;;;;;;4840475;29;20050;-64
2022/01/09 07:00:04;;;;;;;32.20;5.78;;;5.60;99.90;;;;;;4836896;29;20054;-64
2022/01/09 07:02:30;;;;;;;27.45;4.88;;;5.50;99.90;;;;;;4837600;29;20050;-64
2022/01/09 07:04:55;;;;;;;32.03;6.53;;;5.50;99.90;;;;;;4836598;29;20147;-64
2022/01/09 07:07:21;;;;;;;32.00;4.93;;;5.50;99.90;;;;;;4841467;29;20057;-63
2022/01/09 07:09:47;;;;;;;29.73;4.37;;;5.60;99.90;;;;;;4855287;29;20046;-63
2022/01/09 07:12:12;;;;;;;34.73;6.13;;;5.50;99.90;;;;;;4850373;29;20340;-64
2022/01/09 07:14:38;;;;;;;32.77;5.17;;;5.50;99.90;;;;;;4835013;29;20145;-63
2022/01/09 07:17:04;;;;;;;24.03;4.77;;;5.50;99.90;;;;;;4854789;29;20049;-64
2022/01/09 07:19:29;;;;;;;21.85;4.95;;;5.50;99.90;;;;;;4839789;29;20050;-64
2022/01/09 07:21:55;;;;;;;27.17;4.43;;;5.50;99.90;;;;;;4835505;29;20149;-64
2022/01/09 07:24:21;;;;;;;33.10;5.37;;;5.50;99.90;;;;;;4852656;29;20125;-63
2022/01/09 07:26:46;;;;;;;31.30;4.90;;;5.50;99.90;;;;;;4853549;29;20295;-63
2022/01/09 07:29:12;;;;;;;26.53;4.03;;;5.50;99.90;;;;;;4850934;29;20090;-65
2022/01/09 07:31:38;;;;;;;27.23;4.47;;;5.50;99.90;;;;;;4853511;29;20974;-61
2022/01/09 07:34:04;;;;;;;18.65;4.07;;;5.50;99.90;;;;;;4844286;29;20052;-63
2022/01/09 07:36:30;;;;;;;26.27;4.60;;;5.40;99.90;;;;;;4837829;29;20172;-62
2022/01/09 07:38:55;;;;;;;23.40;4.20;;;5.40;99.90;;;;;;4853674;29;20214;-63
2022/01/09 07:41:21;;;;;;;31.43;5.27;;;5.40;99.90;;;;;;4842703;29;20314;-62
2022/01/09 07:43:47;;;;;;;26.83;4.40;;;5.40;99.90;;;;;;4846616;29;20149;-62
2022/01/09 07:46:13;;;;;;;30.05;4.70;;;5.40;99.90;;;;;;4835380;29;20051;-64
2022/01/09 07:48:39;;;;;;;27.27;5.32;;;5.40;99.90;;;;;;4843965;29;20121;-63
2022/01/09 07:51:05;;;;;;;26.75;5.35;;;5.30;99.90;;;;;;4852163;29;20058;-61
2022/01/09 07:53:31;;;;;;;24.30;4.88;;;5.30;99.90;;;;;;4850416;29;20050;-63
2022/01/09 07:55:57;;;;;;;22.30;5.07;;;5.30;99.90;;;;;;4850054;29;20053;-64
2022/01/09 07:58:23;;;;;;;27.07;4.97;;;5.30;99.90;;;;;;4852679;29;20046;-65
2022/01/09 08:00:48;;;;;;;24.27;4.25;;;5.30;99.90;;;;;;4848652;29;20034;-64
2022/01/09 08:03:14;;;;;;;32.17;4.33;;;5.20;99.90;;;;;;4853427;29;20086;-64
2022/01/09 08:05:40;;;;;;;31.77;4.97;;;5.20;99.90;;;;;;4853687;29;20094;-64
2022/01/09 08:08:07;;;;;;;24.77;5.17;;;5.20;99.90;;;;;;4850859;29;20046;-64
2022/01/09 08:10:32;;;;;;;;;;;5.20;99.90;;;;;;4846145;29;20062;-64
2022/01/09 08:13:00;;;;;;;26.17;4.82;;;5.10;99.90;;;;;;4854180;29;20008;-64
2022/01/09 08:15:27;;;;;;;25.10;4.18;;;5.20;99.90;;;;;;4851924;29;20100;-64
2022/01/09 08:17:54;;;;;;;;;;;5.20;99.90;;;;;;4852022;29;20473;-64
2022/01/09 08:20:20;;;;;;;27.90;4.30;;;5.10;99.90;;;;;;4851326;29;19928;-64
2022/01/09 08:22:46;;;;;;;20.45;4.03;;;5.20;99.90;;;;;;4850511;29;20306;-63
2022/01/09 08:25:13;;;;;;;26.55;5.80;;;5.10;99.90;;;;;;4852295;29;20046;-64
2022/01/09 08:27:39;;;;;;;27.40;4.55;;;5.10;99.90;;;;;;4840306;29;20057;-65
2022/01/09 08:30:06;;;;;;;18.33;4.43;;;5.10;99.90;;;;;;4835080;29;20050;-64
2022/01/09 08:32:32;;;;;;;26.75;4.55;;;5.10;99.90;;;;;;4847926;29;20042;-63
2022/01/09 08:34:58;;;;;;;34.40;5.45;;;5.10;99.90;;;;;;4847028;29;20077;-64
2022/01/09 08:37:24;;;;;;;31.57;4.40;;;5.10;99.90;;;;;;4843823;29;20060;-66
2022/01/09 08:39:49;;;;;;;20.03;4.13;;;5.10;99.90;;;;;;4836792;29;20788;-64
2022/01/09 08:42:15;;;;;;;30.97;4.57;;;5.10;99.90;;;;;;4833890;29;20058;-65
2022/01/09 08:44:41;;;;;;;15.60;4.80;;;5.10;99.90;;;;;;4835716;29;20046;-65
2022/01/09 08:47:06;;;;;;;27.20;4.47;;;5.10;99.90;;;;;;4846513;29;20046;-63
2022/01/09 08:49:33;;;;;;;26.03;5.17;;;5.10;99.90;;;;;;4844895;29;20058;-67
2022/01/09 08:51:58;;;;;;;23.58;5.30;;;5.10;99.90;;;;;;4851769;29;20345;-65
2022/01/09 08:54:24;;;;;;;24.17;7.80;;;5.10;99.90;;;;;;4847967;29;20487;-65
2022/01/09 08:56:50;;;;;;;22.93;5.00;;;5.20;99.90;;;;;;4835344;29;20082;-62
2022/01/09 08:59:16;;;;;;;22.53;5.80;;;5.10;99.90;;;;;;4834921;29;20035;-66
2022/01/09 09:01:42;;;;;;;19.00;3.95;;;5.10;99.90;;;;;;4851269;29;20295;-65
2022/01/09 09:04:08;;;;;;;29.63;5.30;;;5.10;99.90;;;;;;4850825;29;20141;-65
2022/01/09 09:06:34;;;;;;;19.55;3.92;;;5.20;99.90;;;;;;4848382;29;20082;-66
2022/01/09 09:08:59;;;;;;;22.90;4.70;;;5.20;99.90;;;;;;4861841;29;20061;-64
2022/01/09 09:11:25;;;;;;;18.43;4.30;;;5.20;99.90;;;;;;4865817;29;20072;-63
2022/01/09 09:13:51;;;;;;;19.43;4.87;;;5.20;99.90;;;;;;4869553;29;20064;-66
2022/01/09 09:16:16;;;;;;;17.07;3.80;;;5.20;99.90;;;;;;4863817;29;20049;-67
2022/01/09 09:18:47;;;;;;;18.40;4.15;;;5.20;99.90;;;;;;4866580;29;20075;-66
2022/01/09 09:21:13;;;;;;;30.77;4.65;;;5.20;99.90;;;;;;4866089;29;20049;-66
2022/01/09 09:23:39;;;;;;;20.05;3.95;;;5.20;99.90;;;;;;4866980;29;20049;-65
2022/01/09 09:26:05;;;;;;;19.08;4.05;;;5.20;99.90;;;;;;4835465;29;20038;-65
2022/01/09 09:28:30;;;;;;;20.37;3.70;;;5.20;99.90;;;;;;4834411;29;20090;-67
2022/01/09 09:30:56;;;;;;;17.85;3.78;;;5.20;99.90;;;;;;4840303;29;20038;-66
2022/01/09 09:33:22;;;;;;;19.70;4.57;;;5.30;99.90;;;;;;4861209;29;20070;-65
2022/01/09 09:35:48;;;;;;;20.85;3.88;;;5.30;99.90;;;;;;4841941;29;20042;-65
2022/01/09 09:38:13;;;;;;;24.20;5.07;;;5.30;99.90;;;;;;4840989;29;20058;-64
2022/01/09 09:40:40;;;;;;;22.33;4.20;;;5.30;99.90;;;;;;4837997;29;20041;-65
2022/01/09 09:43:05;;;;;;;;;;;5.30;99.90;;;;;;4851980;29;20307;-66
2022/01/09 09:45:32;;;;;;;17.02;3.42;;;5.30;99.90;;;;;;4850628;29;20246;-65
2022/01/09 09:47:57;;;;;;;13.98;3.63;;;5.30;99.90;;;;;;4849282;29;20481;-67
2022/01/09 09:50:23;;;;;;;21.30;3.22;;;5.30;99.90;;;;;;4851705;29;20054;-67
2022/01/09 09:52:50;;;;;;;14.57;3.22;;;5.30;99.90;;;;;;4847253;29;21705;-67
2022/01/09 09:55:17;;;;;;;16.23;3.40;;;5.40;99.90;;;;;;4840996;29;20105;-65
2022/01/09 09:57:43;;;;;;;18.98;4.68;;;5.30;99.90;;;;;;4851571;29;20045;-61
2022/01/09 10:00:13;;;;;;;20.45;4.90;;;5.30;99.90;;;;;;4837497;29;20053;-67
2022/01/09 10:02:47;;;;;;;16.08;4.85;;;5.40;99.90;;;;;;4834200;29;20054;-67
2022/01/09 10:05:15;;;;;;;24.25;5.15;;;5.40;99.90;;;;;;4839362;29;20050;-67
2022/01/09 10:07:41;;;;;;;18.45;4.82;;;5.40;99.90;;;;;;4847519;29;20056;-65
2022/01/09 10:10:14;;;;;;;18.38;3.47;;;5.40;99.90;;;;;;4843611;29;20090;-69
2022/01/09 10:12:41;;;;;;;19.75;3.85;;;5.40;99.90;;;;;;4847689;29;20068;-65
2022/01/09 10:15:11;;;;;;;13.63;3.13;;;5.50;99.90;;;;;;4851642;29;20054;-67
2022/01/09 10:17:42;;;;;;;19.15;3.53;;;5.50;99.90;;;;;;4864354;29;20513;-67
2022/01/09 10:20:11;;;;;;;21.85;3.97;;;5.50;99.90;;;;;;4851962;29;20071;-66
2022/01/09 10:22:48;;;;;;;18.17;3.75;;;5.50;99.90;;;;;;4849743;29;20133;-67
2022/01/09 10:25:36;;;;;;;18.75;4.00;;;5.50;99.90;;;;;;4850922;29;20060;-66
2022/01/09 10:28:21;;;;;;;19.35;3.78;;;5.50;99.90;;;;;;4841892;29;20129;-65
2022/01/09 10:30:50;;;;;;;15.68;3.17;;;5.50;99.90;;;;;;4841166;29;20106;-67
2022/01/09 10:33:24;;;;;;;11.23;3.20;;;5.50;99.90;;;;;;4867795;29;20064;-65
2022/01/09 10:35:50;;;;;;;17.98;3.80;;;5.60;99.90;;;;;;4865420;29;20076;-68
2022/01/09 10:38:19;;;;;;;24.35;4.13;;;5.60;99.90;;;;;;4848348;29;20058;-68
2022/01/09 10:40:57;;;;;;;25.88;4.50;;;5.60;99.90;;;;;;4843107;29;20057;-64
2022/01/09 10:43:33;;;;;;;16.55;3.67;;;5.60;99.90;;;;;;4833355;29;20047;-70
2022/01/09 10:45:59;;;;;;;18.55;4.10;;;5.60;99.90;;;;;;4846892;29;20058;-69
2022/01/09 10:48:46;;;;;;;12.60;3.10;;;5.50;99.90;;;;;;4835265;29;20166;-70
2022/01/09 10:51:13;;;;;;;16.25;3.70;;;5.50;99.90;;;;;;4851773;29;20069;-65
2022/01/09 10:53:41;;;;;;;11.82;2.80;;;5.50;99.90;;;;;;4849048;29;20050;-68
2022/01/09 10:56:20;;;;;;;15.13;3.40;;;5.50;99.90;;;;;;4851225;29;20090;-65
2022/01/09 10:58:51;;;;;;;14.55;3.85;;;5.60;99.90;;;;;;4849002;29;20050;-67
2022/01/09 11:01:25;;;;;;;15.90;2.95;;;5.50;99.90;;;;;;4832646;29;20137;-66
2022/01/09 11:04:06;;;;;;;16.70;3.17;;;5.50;99.90;;;;;;4837962;29;20557;-61
2022/01/09 11:06:35;;;;;;;24.77;4.97;;;5.50;99.90;;;;;;4836830;29;20083;-65
2022/01/09 11:09:04;;;;;;;21.77;5.07;;;5.60;99.90;;;;;;4847562;29;20952;-66
2022/01/09 11:11:40;;;;;;;20.05;3.33;;;5.60;99.90;;;;;;4851104;29;20053;-65
2022/01/09 11:14:17;;;;;;;17.85;4.55;;;5.60;99.90;;;;;;4850958;29;20508;-66
2022/01/09 11:16:51;;;;;;;16.85;3.08;;;5.60;99.90;;;;;;4850202;29;20045;-66
2022/01/09 11:19:19;;;;;;;18.45;4.30;;;5.60;99.90;;;;;;4849702;29;20045;-65
2022/01/09 11:21:55;;;;;;;17.83;3.45;;;5.60;99.90;;;;;;4845781;29;20099;-66
2022/01/09 11:24:49;;;;;;;22.83;4.28;;;5.60;99.90;;;;;;4833274;29;20177;-66
2022/01/09 11:27:22;;;;;;;16.23;3.65;;;5.70;99.90;;;;;;4843877;29;20072;-66
2022/01/09 11:29:50;;;;;;;15.50;3.33;;;5.70;99.90;;;;;;4853109;29;20062;-66
2022/01/09 11:32:19;;;;;;;21.33;3.97;;;5.80;99.90;;;;;;4854421;29;20054;-66
2022/01/09 11:34:57;;;;;;;18.48;3.97;;;5.80;99.90;;;;;;4859971;29;20173;-66
2022/01/09 11:37:41;;;;;;;16.50;3.70;;;5.80;99.90;;;;;;4852298;29;20067;-67
2022/01/09 11:40:29;;;;;;;16.73;3.28;;;5.90;99.90;;;;;;4853024;29;20057;-66
2022/01/09 11:43:02;;;;;;;15.07;3.13;;;5.90;99.90;;;;;;4850244;29;20065;-66
2022/01/09 11:45:42;;;;;;;17.17;3.13;;;5.90;99.90;;;;;;4852494;29;20050;-66
2022/01/09 11:48:09;;;;;;;14.45;3.33;;;6.00;99.90;;;;;;4853763;29;20046;-66
2022/01/09 11:50:36;;;;;;;20.13;4.65;;;6.00;99.90;;;;;;4854152;29;20062;-66
2022/01/09 11:53:03;;;;;;;23.42;4.50;;;6.00;99.90;;;;;;4852325;29;20444;-66
2022/01/09 11:55:35;;;;;;;13.70;3.35;;;6.10;99.90;;;;;;4854376;29;20097;-66
2022/01/09 11:58:03;;;;;;;15.20;3.10;;;6.00;99.90;;;;;;4867489;29;20064;-66
2022/01/09 12:00:38;;;;;;;15.82;3.67;;;6.10;99.90;;;;;;4834973;29;20065;-66
2022/01/09 12:03:25;;;;;;;14.55;3.30;;;6.10;99.90;;;;;;4833961;29;20054;-67
2022/01/09 12:06:10;;;;;;;14.60;3.03;;;6.10;99.90;;;;;;4840272;29;20050;-66
2022/01/09 12:08:56;;;;;;;18.15;3.60;;;6.20;99.90;;;;;;4860403;29;20066;-67
2022/01/09 12:11:22;;;;;;;12.68;3.10;;;6.30;99.90;;;;;;4835492;29;20054;-66
2022/01/09 12:13:48;;;;;;;23.00;3.85;;;6.30;99.90;;;;;;4843048;29;20037;-66
2022/01/09 12:16:44;;;;;;;17.15;3.88;;;6.40;99.90;;;;;;4860701;29;20042;-66
2022/01/09 12:19:10;;;;;;;17.58;3.70;;;6.40;99.90;;;;;;4853270;29;20062;-67
2022/01/09 12:21:38;;;;;;;19.13;3.00;;;6.40;99.90;;;;;;4850419;29;20050;-64
2022/01/09 12:24:42;;;;;;;18.92;4.45;;;6.40;99.90;;;;;;4852521;29;20058;-66
2022/01/09 12:27:47;;;;;;;12.48;2.85;;;6.50;99.90;;;;;;4852032;29;20094;-66
2022/01/09 12:33:05;;;;;;;15.23;3.75;;;6.50;99.90;;;;;;4834760;29;20058;-65
2022/01/09 12:35:32;;;;;;;14.90;3.33;;;6.50;99.90;;;;;;4838118;29;20048;-68
2022/01/09 12:38:00;;;;;;;13.45;3.53;;;6.60;99.90;;;;;;4858770;29;20429;-67
2022/01/09 12:40:27;;;;;;;24.50;4.28;;;6.60;99.90;;;;;;4853000;29;20102;-69
2022/01/09 12:42:57;;;;;;;16.80;4.32;;;6.70;99.90;;;;;;4842838;29;20054;-69
2022/01/09 12:45:26;;;;;;;18.17;4.20;;;6.70;99.90;;;;;;4848398;29;20050;-66
2022/01/09 12:47:53;;;;;;;16.33;3.40;;;6.80;99.90;;;;;;4852731;29;20046;-65
2022/01/09 12:50:31;;;;;;;12.00;2.70;;;6.80;99.90;;;;;;4842581;29;21005;-65
2022/01/09 12:53:18;;;;;;;14.18;3.55;;;6.90;99.90;;;;;;4845684;29;20394;-63
2022/01/09 12:56:02;;;;;;;16.23;3.25;;;6.80;99.90;;;;;;4848984;29;20057;-67
2022/01/09 12:58:29;;;;;;;17.42;3.20;;;6.90;99.90;;;;;;4843759;29;20046;-67
2022/01/09 13:00:56;;;;;;;15.88;3.22;;;6.90;99.90;;;;;;4852314;29;20135;-66